Alexandria, Virginia
Current Conditions -  °F | °C
As of 12:52 AM on Saturday 01 Nov 2014 (Local Time) from KDCA Reporting Station
Broken Clouds Broken Clouds  
Wind Chill: 52°   Ceiling: 16000
Heat Index: 52°   Visibility: 10mi
Dew Point: 36°   Wind: 9mph
Humidity: 54%   Direction: 20°NNE
Pressure: 29.82"   Gusts: NA
Location:  38.8°N, 77.04°W
Report Text: KDCA 010452Z 02008KT 10SM FEW055 BKN160 11/02 A2982 RMK AO2 SLP097 T01110022 401500078
Loading
Personal Weather Stations






























Interactive Weather Map
Tropical Storm Tracking
New forecast layout! Learn more

10-Day Weather Forecast

Advertisements
Track Severe Weather on mobile